Time;durP1;ratioP1;P1;durP2;ratioP2;P2;SDS_P1;SDS_P2;PMS_P1;PMS_P2;Temp;Humidity;BMP_temperature;BMP_pressure;BME280_temperature;BME280_humidity;BME280_pressure;Samples;Min_cycle;Max_cycle;Signal;HPM_P1;HPM_P2
2023/03/14 00:00:38;;;;;;;15.10;13.63;;;;;;;1.37;69.02;92968.53;5069867;28;20221;-74
2023/03/14 00:03:03;;;;;;;13.97;12.70;;;;;;;1.47;69.44;92976.53;5069919;28;20198;-73
2023/03/14 00:05:29;;;;;;;14.53;13.13;;;;;;;1.34;70.76;92971.53;5069740;28;20235;-74
2023/03/14 00:07:54;;;;;;;12.77;11.50;;;;;;;1.20;71.29;92966.72;5069935;28;20249;-73
2023/03/14 00:10:20;;;;;;;13.20;11.90;;;;;;;1.20;71.90;92957.22;5069374;28;20225;-73
2023/03/14 00:12:45;;;;;;;12.47;11.47;;;;;;;1.22;71.58;92947.53;5070054;28;20228;-73
2023/03/14 00:15:11;;;;;;;13.03;12.03;;;;;;;1.17;71.88;92962.78;5069355;28;20225;-72
2023/03/14 00:17:37;;;;;;;13.17;11.87;;;;;;;1.16;71.64;92965.59;5069726;28;20177;-73
2023/03/14 00:20:10;;;;;;;14.57;12.03;;;;;;;1.20;71.10;92957.22;5068637;28;20189;-73
2023/03/14 00:22:35;;;;;;;14.53;13.30;;;;;;;0.78;72.08;92883.50;5070275;28;20200;-74
2023/03/14 00:25:02;;;;;;;14.03;12.53;;;;;;;1.02;71.94;92918.66;5069253;28;20189;-73
2023/03/14 00:27:27;;;;;;;14.77;13.43;;;;;;;0.99;72.57;92926.00;5069980;28;20252;-74
2023/03/14 00:29:52;;;;;;;14.07;12.70;;;;;;;1.11;72.66;92922.53;5069182;28;20181;-74
2023/03/14 00:32:18;;;;;;;12.73;11.57;;;;;;;1.10;71.26;92923.53;5069624;28;20305;-74
2023/03/14 00:34:43;;;;;;;13.83;12.63;;;;;;;1.12;70.85;92918.94;5069150;28;20200;-74
2023/03/14 00:37:09;;;;;;;14.07;12.67;;;;;;;1.15;71.09;92912.59;5069335;28;20231;-73
2023/03/14 00:39:34;;;;;;;12.33;11.53;;;;;;;1.11;70.62;92907.09;5068573;28;20215;-74
2023/03/14 00:41:59;;;;;;;12.53;11.40;;;;;;;1.19;69.05;92900.88;5068108;28;20415;-74
2023/03/14 00:44:25;;;;;;;11.57;10.57;;;;;;;1.12;69.25;92898.38;5068550;28;20217;-74
2023/03/14 00:46:50;;;;;;;13.27;11.93;;;;;;;1.13;69.86;92894.03;5068460;28;20256;-74
2023/03/14 00:49:16;;;;;;;12.07;11.17;;;;;;;0.84;70.15;92869.81;5069903;28;20200;-75
2023/03/14 00:51:41;;;;;;;10.53;9.90;;;;;;;0.83;70.16;92857.97;5068589;28;20236;-72
2023/03/14 00:54:07;;;;;;;12.27;11.37;;;;;;;1.06;69.87;92904.38;5069894;28;20193;-73
2023/03/14 00:56:32;;;;;;;12.53;11.60;;;;;;;1.10;70.10;92894.47;5068508;28;20247;-73
2023/03/14 00:58:57;;;;;;;13.13;12.13;;;;;;;1.13;70.95;92904.31;5068828;28;20209;-73
2023/03/14 01:01:23;;;;;;;13.07;12.07;;;;;;;0.93;72.81;92883.19;5068639;28;20216;-73
2023/03/14 01:03:53;;;;;;;12.57;11.57;;;;;;;0.94;72.29;92889.88;5069249;28;20200;-74
2023/03/14 01:06:21;;;;;;;13.23;11.93;;;;;;;0.91;73.67;92896.25;5068121;28;20225;-74
2023/03/14 01:08:47;;;;;;;14.17;12.93;;;;;;;1.04;72.96;92890.94;5067700;28;20257;-73
2023/03/14 01:11:16;;;;;;;13.00;11.93;;;;;;;1.04;73.76;92896.09;5068550;28;20233;-73
2023/03/14 01:13:42;;;;;;;13.20;12.10;;;;;;;1.08;73.94;92894.69;5067876;28;20229;-74
2023/03/14 01:16:10;;;;;;;13.90;12.73;;;;;;;1.03;75.01;92893.72;5067966;28;20273;-74
2023/03/14 01:18:36;;;;;;;14.27;12.97;;;;;;;1.13;74.16;92899.16;5066462;28;20181;-73
2023/03/14 01:21:03;;;;;;;14.80;13.37;;;;;;;0.99;73.85;92880.53;5068381;28;20217;-73
2023/03/14 01:23:29;;;;;;;15.07;13.57;;;;;;;0.87;74.28;92879.66;5068173;28;20272;-74
2023/03/14 01:25:54;;;;;;;15.53;13.93;;;;;;;0.64;75.44;92861.50;5068428;28;20225;-74
2023/03/14 01:28:19;;;;;;;15.43;13.33;;;;;;;0.93;74.74;92872.91;5067857;28;20198;-73
2023/03/14 01:30:45;;;;;;;16.10;14.70;;;;;;;0.86;74.83;92867.81;5068300;28;20245;-73
2023/03/14 01:33:12;;;;;;;15.13;13.73;;;;;;;0.72;75.92;92853.53;5068622;28;20244;-73
2023/03/14 01:35:38;;;;;;;16.50;14.77;;;;;;;0.70;75.49;92852.97;5068000;28;20356;-73
2023/03/14 01:38:03;;;;;;;16.20;14.80;;;;;;;0.75;74.73;92847.97;5068142;28;20201;-73
2023/03/14 01:40:28;;;;;;;18.40;15.23;;;;;;;0.95;74.34;92871.66;5068174;28;20217;-74
2023/03/14 01:42:56;;;;;;;18.13;14.43;;;;;;;0.90;74.32;92861.25;5067762;28;20219;-74
2023/03/14 01:45:59;;;;;;;18.80;16.50;;;;;;;0.77;75.68;92863.97;5068198;28;20227;-74
2023/03/14 01:48:27;;;;;;;20.90;15.37;;;;;;;0.91;74.98;92855.13;5067265;28;20867;-74
2023/03/14 01:50:53;;;;;;;18.13;15.87;;;;;;;0.80;75.03;92837.06;5067998;28;20856;-74
2023/03/14 01:53:21;;;;;;;23.80;16.60;;;;;;;0.77;76.44;92840.06;5071430;28;20224;-74
2023/03/14 01:55:47;;;;;;;18.43;15.70;;;;;;;0.68;78.17;92834.41;5072479;28;20233;-74
2023/03/14 01:58:16;;;;;;;19.20;15.90;;;;;;;0.75;76.98;92845.41;5072055;28;20245;-74
2023/03/14 02:00:41;;;;;;;18.63;16.77;;;;;;;0.65;76.20;92844.34;5071657;28;20284;-73
2023/03/14 02:03:14;;;;;;;17.33;14.70;;;;;;;0.67;76.11;92855.94;5071153;28;20181;-73
2023/03/14 02:05:41;;;;;;;15.00;13.57;;;;;;;0.50;77.41;92836.19;5072094;28;20236;-73
2023/03/14 02:08:19;;;;;;;14.70;13.23;;;;;;;0.61;78.02;92849.09;5071445;28;20177;-73
2023/03/14 02:10:47;;;;;;;13.93;12.73;;;;;;;0.56;78.47;92845.59;5071540;28;20228;-73
2023/03/14 02:13:14;;;;;;;13.93;12.63;;;;;;;0.48;77.94;92828.69;5086987;28;20232;-72
2023/03/14 02:15:40;;;;;;;13.67;12.60;;;;;;;0.55;78.12;92844.81;5071854;28;20236;-73
2023/03/14 02:18:07;;;;;;;14.00;12.70;;;;;;;0.51;76.89;92838.53;5071778;28;20208;-73
2023/03/14 02:20:47;;;;;;;12.43;11.53;;;;;;;0.57;76.88;92831.75;5071014;28;20225;-74
2023/03/14 02:23:16;;;;;;;13.63;12.53;;;;;;;0.29;76.73;92805.75;5071551;28;20815;-74
2023/03/14 02:26:01;;;;;;;13.00;12.03;;;;;;;0.64;77.80;92830.69;5071224;28;20224;-73
2023/03/14 02:28:27;;;;;;;11.47;10.73;;;;;;;0.63;77.05;92836.84;5071523;28;20253;-74
2023/03/14 02:30:52;;;;;;;11.77;11.07;;;;;;;0.51;76.96;92817.22;5070978;28;20710;-74
2023/03/14 02:33:20;;;;;;;12.57;11.57;;;;;;;0.54;78.38;92838.13;5070117;28;20209;-74
2023/03/14 02:35:54;;;;;;;12.63;11.63;;;;;;;0.58;78.78;92834.13;5071445;28;20233;-73
2023/03/14 02:38:42;;;;;;;12.30;11.20;;;;;;;0.23;79.02;92815.09;5071288;28;20202;-73
2023/03/14 02:41:07;;;;;;;12.33;11.43;;;;;;;0.42;78.44;92839.78;5070939;28;20221;-73
2023/03/14 02:43:33;;;;;;;13.27;12.17;;;;;;;0.42;77.96;92833.91;5071956;28;20192;-74
2023/03/14 02:46:00;;;;;;;11.70;10.80;;;;;;;0.49;78.22;92840.53;5070195;28;20244;-75
2023/03/14 02:48:27;;;;;;;12.40;11.53;;;;;;;0.42;77.50;92849.31;5069310;28;20166;-74
2023/03/14 02:50:56;;;;;;;13.50;12.40;;;;;;;0.48;76.88;92846.69;5069887;28;20225;-74
2023/03/14 02:53:26;;;;;;;11.23;10.40;;;;;;;0.37;76.45;92839.66;5070104;28;20213;-73
2023/03/14 02:55:51;;;;;;;11.23;10.33;;;;;;;0.33;76.65;92807.69;5070416;28;20296;-74
2023/03/14 02:58:18;;;;;;;12.90;11.80;;;;;;;0.38;78.30;92850.69;5070201;28;20185;-74
2023/03/14 03:00:44;;;;;;;11.83;10.97;;;;;;;0.51;78.14;92848.03;5070137;28;20225;-74
2023/03/14 03:03:09;;;;;;;12.33;11.33;;;;;;;0.57;77.31;92860.00;5069871;28;20264;-70
2023/03/14 03:05:35;;;;;;;13.63;12.73;;;;;;;0.49;76.73;92852.56;5070178;28;20221;-70
2023/03/14 03:08:00;;;;;;;14.37;12.07;;;;;;;0.31;76.72;92832.00;5070188;28;20734;-71
2023/03/14 03:10:27;;;;;;;13.20;12.30;;;;;;;0.33;77.48;92846.19;5069282;28;20223;-71
2023/03/14 03:12:53;;;;;;;13.90;11.30;;;;;;;0.38;77.24;92848.94;5067973;28;20209;-71
2023/03/14 03:15:18;;;;;;;13.20;12.23;;;;;;;0.46;77.19;92845.31;5070040;28;20248;-70
2023/03/14 03:17:44;;;;;;;13.30;12.10;;;;;;;0.50;77.23;92836.19;5070185;28;20173;-71
2023/03/14 03:20:10;;;;;;;14.33;13.23;;;;;;;0.42;77.14;92823.63;5068205;28;20196;-72
2023/03/14 03:22:37;;;;;;;13.03;12.13;;;;;;;0.28;78.62;92833.19;5069253;28;20182;-71
2023/03/14 03:25:04;;;;;;;13.93;12.73;;;;;;;0.33;79.22;92830.78;5068944;28;20189;-70
2023/03/14 03:27:31;;;;;;;12.97;11.97;;;;;;;0.31;78.87;92837.94;5070421;28;20209;-70
2023/03/14 03:29:57;;;;;;;12.43;11.63;;;;;;;0.43;78.25;92843.94;5069466;28;20245;-70
2023/03/14 03:32:22;;;;;;;12.87;11.93;;;;;;;0.46;77.59;92842.72;5069740;28;20213;-70
2023/03/14 03:34:48;;;;;;;12.10;11.10;;;;;;;0.18;78.87;92821.84;5069843;28;20192;-70
2023/03/14 03:37:13;;;;;;;12.03;11.23;;;;;;;0.49;78.81;92839.75;5067459;28;20240;-70
2023/03/14 03:39:38;;;;;;;13.47;10.53;;;;;;;0.28;79.97;92837.56;5069490;28;20193;-70
2023/03/14 03:42:04;;;;;;;10.67;9.87;;;;;;;0.29;79.87;92834.00;5068716;28;20304;-70
2023/03/14 03:44:29;;;;;;;10.93;10.20;;;;;;;0.42;78.46;92834.66;5029667;28;1146655;-70
2023/03/14 03:46:55;;;;;;;11.77;10.87;;;;;;;0.39;78.17;92835.09;5070310;28;20468;-70
2023/03/14 03:49:20;;;;;;;11.23;10.33;;;;;;;0.28;79.99;92840.16;5070425;28;20189;-71
2023/03/14 03:51:45;;;;;;;13.73;10.50;;;;;;;0.08;80.01;92822.31;5069996;28;20256;-71
2023/03/14 03:54:11;;;;;;;11.53;10.73;;;;;;;0.21;80.61;92847.09;5070660;28;20227;-70
2023/03/14 03:56:36;;;;;;;11.23;10.43;;;;;;;0.17;80.55;92851.09;5069772;28;20213;-71
2023/03/14 03:59:01;;;;;;;13.00;12.07;;;;;;;0.14;79.16;92847.16;5070437;28;20216;-70
2023/03/14 04:01:27;;;;;;;14.03;12.80;;;;;;;0.20;78.20;92855.81;5068859;28;20225;-71
2023/03/14 04:03:52;;;;;;;14.33;13.23;;;;;;;0.19;78.10;92857.56;5069906;28;20201;-70
2023/03/14 04:06:18;;;;;;;14.50;13.10;;;;;;;0.09;79.33;92859.03;5069733;28;20280;-70
2023/03/14 04:08:43;;;;;;;15.47;14.03;;;;;;;0.13;80.10;92852.50;5069900;28;20196;-71
2023/03/14 04:11:08;;;;;;;14.67;13.23;;;;;;;0.12;80.45;92846.59;5069297;28;20230;-71
2023/03/14 04:13:34;;;;;;;15.00;13.50;;;;;;;0.09;79.68;92836.75;5069699;28;20217;-70
2023/03/14 04:15:59;;;;;;;14.97;13.47;;;;;;;0.12;79.58;92844.03;5069045;28;20232;-69
2023/03/14 04:18:26;;;;;;;16.27;14.53;;;;;;;-0.01;81.77;92834.66;5068558;28;20201;-70
2023/03/14 04:20:53;;;;;;;15.00;13.33;;;;;;;0.00;81.72;92827.75;5069499;28;20249;-70
2023/03/14 04:23:18;;;;;;;12.30;11.17;;;;;;;0.10;82.13;92832.38;5069783;28;20198;-71
2023/03/14 04:25:44;;;;;;;11.93;11.03;;;;;;;-0.11;81.25;92792.50;5068413;28;20235;-71
2023/03/14 04:28:09;;;;;;;13.13;12.23;;;;;;;-0.03;83.15;92826.38;5069550;28;20228;-71
2023/03/14 04:30:35;;;;;;;11.73;10.83;;;;;;;0.02;82.21;92824.97;5069425;28;20282;-71
2023/03/14 04:33:00;;;;;;;13.80;12.40;;;;;;;-0.01;82.50;92813.31;5069490;28;20209;-71
2023/03/14 04:35:26;;;;;;;14.00;11.20;;;;;;;-0.05;83.12;92805.25;5068913;28;20229;-71
2023/03/14 04:37:51;;;;;;;12.47;11.37;;;;;;;-0.04;82.38;92793.22;5069270;28;20216;-70
2023/03/14 04:40:17;;;;;;;12.13;11.33;;;;;;;-0.11;81.50;92807.91;5068663;28;20251;-69
2023/03/14 04:42:42;;;;;;;11.90;10.47;;;;;;;-0.07;81.76;92803.91;5069252;28;20185;-73
2023/03/14 04:45:08;;;;;;;13.63;12.30;;;;;;;0.08;80.30;92808.72;5069314;28;20221;-72
2023/03/14 04:47:33;;;;;;;17.77;13.20;;;;;;;-0.04;79.84;92790.66;5069291;28;20276;-70
2023/03/14 04:49:59;;;;;;;15.40;13.83;;;;;;;0.27;79.17;92811.09;5068720;28;20185;-71
2023/03/14 04:52:25;;;;;;;15.07;13.57;;;;;;;0.00;78.92;92768.72;5068297;28;20283;-70
2023/03/14 04:54:51;;;;;;;16.60;13.63;;;;;;;0.11;81.02;92801.38;5068722;28;20255;-73
2023/03/14 04:57:16;;;;;;;14.13;12.57;;;;;;;-0.01;80.59;92772.28;5068781;28;20189;-70
2023/03/14 04:59:42;;;;;;;13.60;12.20;;;;;;;0.00;80.90;92763.59;5068868;28;20192;-70
2023/03/14 05:02:07;;;;;;;14.40;12.93;;;;;;;0.19;80.84;92783.13;5068346;28;20229;-73
2023/03/14 05:04:33;;;;;;;13.80;12.10;;;;;;;0.29;81.16;92788.59;5068274;28;20205;-74
2023/03/14 05:06:59;;;;;;;20.20;12.50;;;;;;;0.26;80.50;92791.59;5066296;28;20256;-73
2023/03/14 05:09:25;;;;;;;13.43;12.17;;;;;;;0.19;81.32;92782.38;5068176;28;20192;-70
2023/03/14 05:11:50;;;;;;;18.07;13.07;;;;;;;0.26;80.59;92786.44;5067425;28;20255;-69
2023/03/14 05:14:15;;;;;;;16.40;13.20;;;;;;;0.39;80.79;92791.44;5067355;28;20261;-69
2023/03/14 05:16:41;;;;;;;13.33;12.10;;;;;;;0.44;80.18;92781.31;5067268;28;20221;-71
2023/03/14 05:19:06;;;;;;;13.37;12.10;;;;;;;0.53;80.65;92792.88;5067748;28;20204;-73
2023/03/14 05:21:31;;;;;;;14.37;12.73;;;;;;;0.61;80.39;92792.59;5067959;28;20236;-71
2023/03/14 05:23:57;;;;;;;13.30;12.07;;;;;;;0.75;79.76;92803.50;5067353;28;20202;-72
2023/03/14 05:26:23;;;;;;;13.83;12.63;;;;;;;0.74;79.90;92776.25;5067318;28;20229;-73
2023/03/14 05:28:48;;;;;;;18.37;13.03;;;;;;;1.03;79.23;92785.78;5066642;28;20185;-72
2023/03/14 05:31:14;;;;;;;17.23;14.27;;;;;;;1.21;78.90;92794.28;5066460;28;20304;-69
2023/03/14 05:33:40;;;;;;;13.33;12.33;;;;;;;1.36;78.47;92789.50;5068119;28;20231;-71
2023/03/14 05:36:05;;;;;;;14.57;13.07;;;;;;;1.58;78.11;92789.81;5068090;28;20229;-72
2023/03/14 05:38:31;;;;;;;15.03;13.60;;;;;;;1.81;76.35;92789.06;5063514;28;20216;-72
2023/03/14 05:40:56;;;;;;;17.33;14.57;;;;;;;2.04;74.72;92781.38;5066624;28;20245;-71
2023/03/14 05:43:22;;;;;;;15.60;14.13;;;;;;;2.23;73.10;92787.97;5066624;28;20192;-72
2023/03/14 05:45:47;;;;;;;22.03;13.30;;;;;;;2.33;73.07;92788.22;5067890;28;20259;-72
2023/03/14 05:48:12;;;;;;;17.80;13.67;;;;;;;2.63;70.66;92786.31;5065582;28;20173;-72
2023/03/14 05:50:38;;;;;;;17.10;15.50;;;;;;;2.74;67.72;92795.81;5066663;28;20249;-72
2023/03/14 05:53:05;;;;;;;16.10;14.50;;;;;;;2.79;67.42;92794.13;5066140;28;20268;-72
2023/03/14 05:55:30;;;;;;;15.87;14.17;;;;;;;2.80;65.92;92795.69;5067165;28;20225;-72
2023/03/14 05:57:55;;;;;;;15.27;13.77;;;;;;;2.90;65.91;92790.75;5064083;28;20966;-72
2023/03/14 06:00:21;;;;;;;18.00;14.43;;;;;;;2.86;65.23;92794.75;5066217;28;20271;-71
2023/03/14 06:02:47;;;;;;;17.23;15.43;;;;;;;2.97;64.97;92796.53;5066075;28;20204;-72
2023/03/14 06:05:12;;;;;;;20.13;15.43;;;;;;;2.92;64.83;92783.56;5066927;28;20229;-72
2023/03/14 06:07:38;;;;;;;17.57;15.40;;;;;;;3.02;65.55;92788.91;5065255;28;20182;-71
2023/03/14 06:10:04;;;;;;;20.73;16.23;;;;;;;2.78;66.20;92802.09;5067111;28;20193;-71
2023/03/14 06:12:29;;;;;;;18.60;15.07;;;;;;;2.69;66.16;92757.81;5065126;28;20277;-71
2023/03/14 06:14:55;;;;;;;17.23;15.53;;;;;;;2.81;66.34;92793.91;5067149;28;20194;-72
2023/03/14 06:17:20;;;;;;;17.87;15.73;;;;;;;2.72;66.62;92790.91;5067130;28;20174;-71
2023/03/14 06:19:46;;;;;;;17.97;16.17;;;;;;;2.70;65.79;92786.97;5068003;28;20185;-71
2023/03/14 06:22:11;;;;;;;18.47;15.43;;;;;;;2.33;67.11;92783.06;5065373;28;20226;-71
2023/03/14 06:24:37;;;;;;;19.33;16.37;;;;;;;2.53;67.35;92789.47;5066761;28;20249;-70
2023/03/14 06:27:02;;;;;;;17.90;15.23;;;;;;;2.51;68.45;92800.97;5065929;28;20228;-70
2023/03/14 06:29:29;;;;;;;17.47;15.73;;;;;;;2.61;67.77;92788.31;5066712;28;20196;-71
2023/03/14 06:31:55;;;;;;;19.50;16.10;;;;;;;2.54;67.20;92782.50;5064675;28;20316;-71
2023/03/14 06:34:20;;;;;;;20.87;17.37;;;;;;;2.69;68.01;92791.31;5065728;28;20186;-71
2023/03/14 06:36:46;;;;;;;20.27;17.10;;;;;;;2.76;67.38;92798.94;5065117;28;20221;-71
2023/03/14 06:39:12;;;;;;;19.87;17.77;;;;;;;2.80;67.84;92798.25;5067491;28;20248;-71
2023/03/14 06:41:37;;;;;;;19.23;16.43;;;;;;;3.11;66.29;92790.13;5067909;28;20221;-71
2023/03/14 06:44:02;;;;;;;19.00;17.03;;;;;;;3.36;65.43;92797.56;5069343;28;20212;-72
2023/03/14 06:46:28;;;;;;;20.47;17.93;;;;;;;3.24;66.01;92789.88;5069629;28;20233;-72
2023/03/14 06:48:53;;;;;;;18.80;15.67;;;;;;;2.90;66.17;92770.13;5069957;28;20204;-72
2023/03/14 06:51:19;;;;;;;18.57;16.50;;;;;;;3.11;65.56;92773.88;5069719;28;20232;-72
2023/03/14 06:53:44;;;;;;;20.33;16.17;;;;;;;3.05;65.89;92767.81;5069911;28;20231;-72
2023/03/14 06:56:10;;;;;;;20.43;15.50;;;;;;;3.33;65.20;92770.41;5070135;28;20221;-71
2023/03/14 06:58:35;;;;;;;20.67;16.43;;;;;;;3.62;65.08;92776.34;5071318;28;20193;-72
2023/03/14 07:01:01;;;;;;;17.13;15.27;;;;;;;3.93;64.42;92770.69;5069807;28;20225;-71
2023/03/14 07:03:27;;;;;;;16.80;14.27;;;;;;;4.31;62.97;92783.66;5069137;28;20228;-71
2023/03/14 07:05:53;;;;;;;17.33;13.67;;;;;;;4.49;61.81;92774.88;5069968;28;20255;-72
2023/03/14 07:08:18;;;;;;;15.63;14.03;;;;;;;4.55;60.89;92759.22;5070692;28;20193;-71
2023/03/14 07:10:43;;;;;;;15.10;13.67;;;;;;;4.74;60.58;92770.84;5069839;28;20221;-70
2023/03/14 07:13:09;;;;;;;14.27;12.97;;;;;;;4.76;61.66;92766.19;5069895;28;20219;-71
2023/03/14 07:15:34;;;;;;;16.30;12.50;;;;;;;4.77;61.71;92752.28;5067209;28;20304;-70
2023/03/14 07:18:00;;;;;;;15.37;13.90;;;;;;;5.00;61.69;92755.66;5069105;28;20227;-70
2023/03/14 07:20:25;;;;;;;13.73;12.50;;;;;;;5.05;61.44;92745.34;5069408;28;20300;-71
2023/03/14 07:22:51;;;;;;;13.63;12.20;;;;;;;4.98;61.71;92763.63;5069207;28;20197;-71
2023/03/14 07:25:17;;;;;;;13.50;12.30;;;;;;;4.87;61.95;92751.63;5068341;28;20244;-69
2023/03/14 07:27:44;;;;;;;13.37;12.13;;;;;;;4.97;61.72;92773.22;5070443;28;20197;-70
2023/03/14 07:30:11;;;;;;;12.13;11.13;;;;;;;5.02;60.26;92762.13;5069495;28;20261;-69
2023/03/14 07:32:36;;;;;;;12.67;11.57;;;;;;;5.04;60.61;92760.09;5069745;28;20251;-70
2023/03/14 07:35:02;;;;;;;13.73;12.23;;;;;;;5.37;59.84;92766.94;5068474;28;20201;-69
2023/03/14 07:37:27;;;;;;;13.50;12.47;;;;;;;5.11;60.47;92762.47;5070451;28;20182;-69
2023/03/14 07:39:53;;;;;;;13.93;12.27;;;;;;;4.93;60.83;92761.00;5069310;28;20200;-71
2023/03/14 07:42:18;;;;;;;13.63;12.33;;;;;;;5.19;60.72;92749.13;5069645;28;20197;-70
2023/03/14 07:44:43;;;;;;;13.30;12.17;;;;;;;5.43;59.17;92760.78;5068538;28;20245;-69
2023/03/14 07:47:09;;;;;;;13.83;12.40;;;;;;;5.55;59.18;92743.28;5067993;28;20225;-69
2023/03/14 07:49:34;;;;;;;12.80;11.47;;;;;;;5.70;58.47;92753.78;5066793;28;20209;-70
2023/03/14 07:51:59;;;;;;;13.20;11.80;;;;;;;5.78;58.91;92732.63;5068385;28;20254;-70
2023/03/14 07:54:25;;;;;;;12.40;11.57;;;;;;;5.37;59.33;92733.28;5068482;28;20421;-70
2023/03/14 07:56:51;;;;;;;12.47;11.40;;;;;;;5.71;58.83;92750.19;5068636;28;21071;-70
2023/03/14 07:59:17;;;;;;;13.47;12.47;;;;;;;5.61;60.16;92748.28;5066720;28;20275;-70
2023/03/14 08:01:43;;;;;;;12.57;11.37;;;;;;;5.67;58.65;92746.50;5067538;28;20221;-69
2023/03/14 08:04:08;;;;;;;12.47;11.63;;;;;;;5.65;57.79;92749.34;5069394;28;21158;-70
2023/03/14 08:06:35;;;;;;;12.03;11.13;;;;;;;5.98;57.54;92740.59;5066289;28;20275;-69
2023/03/14 08:09:01;;;;;;;13.60;12.47;;;;;;;5.86;58.09;92747.75;5067989;28;20189;-70
2023/03/14 08:11:26;;;;;;;12.50;11.40;;;;;;;5.93;57.62;92754.28;5067299;28;20251;-70
2023/03/14 08:13:52;;;;;;;12.80;11.83;;;;;;;6.05;57.79;92746.38;5069279;28;20217;-70
2023/03/14 08:16:17;;;;;;;12.60;11.50;;;;;;;6.14;57.21;92730.13;5067259;28;20239;-71
2023/03/14 08:18:44;;;;;;;13.20;11.90;;;;;;;6.56;55.72;92735.31;5069606;28;20925;-71
2023/03/14 08:21:10;;;;;;;14.07;12.97;;;;;;;6.52;55.90;92734.25;5067796;28;20320;-70
2023/03/14 08:23:35;;;;;;;13.63;12.63;;;;;;;6.66;54.63;92734.59;5069724;28;20169;-70
2023/03/14 08:26:00;;;;;;;13.77;12.50;;;;;;;6.65;54.93;92751.97;5070106;28;20228;-70
2023/03/14 08:28:30;;;;;;;14.87;13.47;;;;;;;6.63;54.86;92746.22;5070035;28;20201;-71
2023/03/14 08:30:57;;;;;;;13.80;12.67;;;;;;;6.82;55.38;92739.59;5069313;28;20812;-70
2023/03/14 08:33:23;;;;;;;15.10;13.70;;;;;;;6.74;55.06;92742.66;5069541;28;20205;-70
2023/03/14 08:35:52;;;;;;;14.07;12.87;;;;;;;6.80;53.82;92731.31;5068684;28;20221;-70
2023/03/14 08:38:17;;;;;;;14.33;12.70;;;;;;;6.80;54.28;92739.09;5069958;28;20205;-69
2023/03/14 08:40:43;;;;;;;15.00;13.60;;;;;;;7.05;54.27;92733.22;5069340;28;20225;-70
2023/03/14 08:43:08;;;;;;;13.90;12.60;;;;;;;7.08;55.00;92743.09;5068710;28;20272;-71
2023/03/14 08:45:33;;;;;;;15.83;11.40;;;;;;;7.31;52.51;92732.28;5068779;28;20288;-69
2023/03/14 08:47:59;;;;;;;14.43;12.97;;;;;;;7.35;52.87;92734.09;5069898;28;20189;-71
2023/03/14 08:50:24;;;;;;;14.33;12.83;;;;;;;7.17;52.51;92726.00;5069235;28;20229;-68
2023/03/14 08:52:50;;;;;;;14.10;12.67;;;;;;;7.31;51.46;92722.69;5068613;28;20213;-69
2023/03/14 08:55:16;;;;;;;14.77;13.37;;;;;;;7.52;52.58;92707.91;5067722;28;20252;-68
2023/03/14 08:57:41;;;;;;;14.53;13.17;;;;;;;7.21;51.71;92717.44;5069311;28;20189;-69
2023/03/14 09:00:10;;;;;;;18.20;12.60;;;;;;;7.33;51.37;92715.41;5067709;28;20196;-69
2023/03/14 09:02:36;;;;;;;14.33;13.03;;;;;;;7.18;52.37;92714.56;5069486;28;20197;-67
2023/03/14 09:05:02;;;;;;;13.03;11.73;;;;;;;7.39;52.81;92706.56;5068243;28;21743;-68
2023/03/14 09:07:27;;;;;;;14.70;13.23;;;;;;;7.79;49.77;92703.28;5066947;28;20192;-68
2023/03/14 09:09:52;;;;;;;15.50;14.13;;;;;;;7.89;48.97;92698.09;5068777;28;20189;-69
2023/03/14 09:12:18;;;;;;;14.37;13.27;;;;;;;7.98;49.45;92702.50;5069196;28;20220;-67
2023/03/14 09:14:43;;;;;;;14.57;13.27;;;;;;;8.05;48.87;92691.84;5068773;28;20200;-66
2023/03/14 09:17:08;;;;;;;15.33;13.83;;;;;;;8.09;48.83;92683.25;5068978;28;20252;-69
2023/03/14 09:19:34;;;;;;;14.57;13.30;;;;;;;8.20;48.35;92684.81;5067995;28;20209;-68
2023/03/14 09:22:00;;;;;;;14.90;13.50;;;;;;;8.25;47.69;92683.28;5068556;28;20219;-68
2023/03/14 09:24:25;;;;;;;15.33;13.83;;;;;;;8.25;48.13;92678.84;5068687;28;20200;-66
2023/03/14 09:26:50;;;;;;;15.53;14.17;;;;;;;8.09;48.87;92672.84;5068604;28;20229;-69
2023/03/14 09:29:16;;;;;;;16.57;15.07;;;;;;;8.16;48.57;92657.78;5069415;28;20215;-68
2023/03/14 09:31:41;;;;;;;15.30;12.90;;;;;;;8.51;48.63;92653.59;5068334;28;20671;-68
2023/03/14 09:34:06;;;;;;;14.30;12.73;;;;;;;8.41;48.97;92656.19;5068592;28;20228;-68
2023/03/14 09:36:32;;;;;;;14.60;13.20;;;;;;;8.82;47.50;92661.03;5068410;28;20221;-68
2023/03/14 09:38:57;;;;;;;16.37;13.67;;;;;;;9.01;48.26;92654.16;5068917;28;20201;-68
2023/03/14 09:41:31;;;;;;;14.27;12.97;;;;;;;9.16;46.92;92638.50;5067104;28;20218;-67
2023/03/14 09:44:09;;;;;;;18.73;14.43;;;;;;;9.43;46.07;92644.03;5068127;28;20239;-68
2023/03/14 09:46:37;;;;;;;15.43;14.03;;;;;;;9.52;45.99;92629.41;5067057;28;21201;-69
2023/03/14 09:49:11;;;;;;;16.10;14.63;;;;;;;9.27;46.90;92629.56;5068924;28;20215;-69
2023/03/14 09:51:37;;;;;;;16.07;14.63;;;;;;;9.54;45.41;92621.34;5067989;28;20252;-69
2023/03/14 09:54:05;;;;;;;15.00;13.37;;;;;;;9.44;45.83;92631.81;5067412;28;20281;-68
2023/03/14 09:56:33;;;;;;;16.80;15.07;;;;;;;9.48;46.40;92622.38;5068426;28;20289;-68
2023/03/14 09:59:02;;;;;;;16.00;14.50;;;;;;;9.61;45.35;92613.97;5068374;28;20224;-69
2023/03/14 10:01:30;;;;;;;17.10;15.37;;;;;;;9.64;45.99;92616.03;5067639;28;20245;-69
2023/03/14 10:03:58;;;;;;;17.03;15.20;;;;;;;10.03;45.12;92611.53;5067495;28;20193;-67
2023/03/14 10:06:28;;;;;;;16.13;14.50;;;;;;;9.67;44.86;92605.06;5065065;28;20221;-67
2023/03/14 10:08:54;;;;;;;17.03;15.33;;;;;;;9.38;46.88;92592.00;5068238;28;20181;-67
2023/03/14 10:11:21;;;;;;;15.23;13.83;;;;;;;9.59;46.15;92600.41;5067661;28;20221;-67
2023/03/14 10:14:08;;;;;;;16.03;14.47;;;;;;;9.77;45.58;92599.78;5070387;28;20209;-67
2023/03/14 10:16:41;;;;;;;15.63;14.13;;;;;;;9.98;44.62;92595.19;5071869;28;20236;-68
2023/03/14 10:19:11;;;;;;;15.37;14.00;;;;;;;10.02;44.17;92583.91;5071438;28;20186;-66
2023/03/14 10:21:42;;;;;;;15.67;13.90;;;;;;;10.23;44.36;92585.28;5070906;28;20289;-67
2023/03/14 10:24:22;;;;;;;14.97;13.47;;;;;;;10.39;44.33;92581.47;5072326;28;20197;-67
2023/03/14 10:27:17;;;;;;;14.23;12.90;;;;;;;10.69;42.78;92570.66;5071560;28;20223;-67
2023/03/14 10:29:55;;;;;;;15.80;14.37;;;;;;;10.77;42.84;92558.84;5071712;28;20186;-67
2023/03/14 10:32:27;;;;;;;15.43;13.93;;;;;;;10.87;43.44;92551.66;5071710;28;20276;-67
2023/03/14 10:35:04;;;;;;;14.87;13.33;;;;;;;10.87;43.21;92546.44;5071661;28;20248;-69
2023/03/14 10:37:30;;;;;;;14.87;13.40;;;;;;;11.14;42.76;92543.97;5070812;28;20872;-69
2023/03/14 10:40:05;;;;;;;15.10;13.30;;;;;;;10.92;42.03;92533.31;5071477;28;20212;-67
2023/03/14 10:42:34;;;;;;;14.30;12.80;;;;;;;11.21;43.00;92527.94;5104247;28;20245;-68
2023/03/14 10:45:24;;;;;;;14.07;12.87;;;;;;;11.41;41.04;92516.41;5070680;28;20236;-67
2023/03/14 10:47:51;;;;;;;15.50;13.90;;;;;;;11.43;41.84;92501.19;5071373;28;20220;-67
2023/03/14 10:50:27;;;;;;;14.50;13.30;;;;;;;11.44;41.83;92510.63;5071348;28;20224;-67
2023/03/14 10:52:54;;;;;;;14.30;12.57;;;;;;;11.42;42.69;92507.50;5071677;28;20240;-68
2023/03/14 10:55:20;;;;;;;13.90;12.73;;;;;;;11.45;41.76;92496.47;5070293;28;20239;-67
2023/03/14 10:57:46;;;;;;;13.27;12.03;;;;;;;11.62;42.72;92496.72;5072331;28;20187;-66
2023/03/14 11:00:16;;;;;;;14.23;12.73;;;;;;;11.70;41.87;92485.63;5071455;28;20253;-67
2023/03/14 11:02:48;;;;;;;13.80;12.40;;;;;;;11.73;41.02;92490.28;5071100;28;20204;-68
2023/03/14 11:05:19;;;;;;;12.57;11.57;;;;;;;11.73;41.62;92479.81;5070711;28;20239;-67
2023/03/14 11:07:45;;;;;;;13.80;12.80;;;;;;;11.64;41.88;92476.31;5072106;28;20200;-67
2023/03/14 11:10:31;;;;;;;13.03;12.07;;;;;;;11.55;42.36;92472.78;5069918;28;20250;-67
2023/03/14 11:13:16;;;;;;;13.30;11.77;;;;;;;11.62;42.70;92462.72;5070226;28;20237;-67
2023/03/14 11:16:19;;;;;;;13.37;12.03;;;;;;;11.80;42.98;92461.94;5070462;28;20308;-67
2023/03/14 11:19:17;;;;;;;12.33;11.27;;;;;;;12.01;41.72;92458.66;5071246;28;20177;-68
2023/03/14 11:22:16;;;;;;;13.33;11.93;;;;;;;12.14;42.41;92449.25;5065696;28;20324;-67
2023/03/14 11:24:51;;;;;;;14.47;12.70;;;;;;;12.15;41.44;92438.50;5068607;28;20258;-67